Terminal Aerodrome Forecast
Issued by NWS

Home | Current Version | Previous Version | Text Only | Print | Product List | Glossary On
Versions: 1 2 3 4 5 6 7 8 9 10 11 12 13 14 15 16 17 18 19
000
FTUS45 KLKN 242200 AAA
TAFTPH
TAF AMD
KTPH 242223Z 2422/2518 27009G19KT P6SM FEW100 BKN200
     FM242300 25008G18KT P6SM SCT100 OVC200
     FM250500 30009KT P6SM SCT090 OVC150
     FM251100 32009KT P6SM VCSH SCT090 OVC150
     FM251700 26016G26KT P6SM VCSH SCT070 OVC150=

USA.gov is the U.S. government's official web portal to all federal, state and local government web resources and services.